Time;durP1;ratioP1;P1;durP2;ratioP2;P2;SDS_P1;SDS_P2;PMS_P1;PMS_P2;Temp;Humidity;BMP_temperature;BMP_pressure;BME280_temperature;BME280_humidity;BME280_pressure;Samples;Min_cycle;Max_cycle;Signal;HPM_P1;HPM_P2
2021/12/21 00:00:27;;;;;;;32.35;13.15;;;;;;;-3.81;76.67;100685.64;1653768;86;25452;-72
2021/12/21 00:02:56;;;;;;;30.45;12.68;;;;;;;-3.79;76.77;100688.89;1653700;86;25424;-71
2021/12/21 00:05:27;;;;;;;36.28;14.10;;;;;;;-3.76;76.79;100691.93;1649080;86;25795;-72
2021/12/21 00:07:55;;;;;;;27.32;12.63;;;;;;;-3.72;76.89;100690.20;1652886;86;25745;-72
2021/12/21 00:10:24;;;;;;;;;;;;;;;-3.70;76.86;100685.00;1656401;86;27351;-72
2021/12/21 00:15:53;;;;;;;27.25;12.47;;;;;;;-3.64;77.00;100684.71;1652815;86;25719;-72
2021/12/21 00:18:23;;;;;;;25.90;11.33;;;;;;;-3.63;77.03;100685.80;1654216;86;25631;-73
2021/12/21 00:25:44;;;;;;;26.55;11.95;;;;;;;-3.55;77.10;100688.75;1581925;89;25535;-73
2021/12/21 00:28:11;;;;;;;26.62;13.38;;;;;;;-3.54;77.11;100686.42;1581747;90;25669;-73
2021/12/21 00:30:37;;;;;;;23.57;11.33;;;;;;;-3.51;77.23;100696.57;1597439;89;25604;-74
2021/12/21 00:33:03;;;;;;;34.60;13.38;;;;;;;-3.49;77.20;100685.30;1598564;89;25693;-71
2021/12/21 00:35:30;;;;;;;27.58;12.93;;;;;;;-3.47;77.16;100683.77;1598234;89;27333;-71
2021/12/21 00:37:57;;;;;;;29.60;12.98;;;;;;;-3.45;77.14;100696.27;1598429;89;25796;-72
2021/12/21 00:40:23;;;;;;;28.23;12.33;;;;;;;-3.44;77.00;100693.43;1598442;88;25485;-72
2021/12/21 00:42:50;;;;;;;24.87;11.85;;;;;;;-3.43;76.96;100697.68;1598681;89;26265;-72
2021/12/21 00:45:16;;;;;;;23.80;11.73;;;;;;;-3.43;76.88;100701.65;1627739;86;25600;-71
2021/12/21 00:47:47;;;;;;;34.78;12.80;;;;;;;-3.43;76.85;100712.75;1653923;86;27324;-71
2021/12/21 00:50:16;;;;;;;35.25;13.53;;;;;;;-3.43;76.92;100714.07;1653939;86;25458;-72
2021/12/21 00:52:39;;;;;;;29.25;12.50;;;;;;;-3.42;76.96;100707.77;1653869;86;25655;-72
2021/12/21 00:55:07;;;;;;;32.50;12.65;;;;;;;-3.41;77.10;100710.70;1653899;86;25710;-72
2021/12/21 00:57:33;;;;;;;32.03;13.35;;;;;;;-3.36;77.23;100712.22;1654432;86;25662;-72
2021/12/21 01:00:00;;;;;;;29.95;13.18;;;;;;;-3.34;77.18;100718.11;1653965;86;27347;-72
2021/12/21 01:02:27;;;;;;;28.50;12.53;;;;;;;-3.32;77.17;100717.42;1653998;86;25630;-72
2021/12/21 01:04:56;;;;;;;29.12;13.70;;;;;;;-3.31;77.19;100716.90;1654328;86;25569;-72
2021/12/21 01:07:29;;;;;;;29.92;13.28;;;;;;;-3.28;77.26;100715.17;1652407;86;26358;-72
2021/12/21 01:12:49;;;;;;;29.63;13.48;;;;;;;-3.22;77.34;100716.48;1653828;86;27383;-72
2021/12/21 01:15:21;;;;;;;32.03;13.62;;;;;;;-3.19;77.46;100714.72;1653987;86;25627;-72
2021/12/21 01:17:53;;;;;;;27.90;12.58;;;;;;;-3.15;77.37;100722.25;1577374;89;25623;-72
2021/12/21 01:20:27;;;;;;;30.17;13.03;;;;;;;-3.13;77.35;100722.36;1598497;89;25681;-72
2021/12/21 01:23:05;;;;;;;30.92;12.78;;;;;;;-3.10;77.38;100717.98;1595663;89;25659;-72
2021/12/21 01:25:35;;;;;;;25.48;12.07;;;;;;;-3.09;77.31;100718.78;1591057;89;27353;-72
2021/12/21 01:30:32;;;;;;;19.45;8.95;;;;;;;-3.08;77.15;100727.84;1597228;88;25643;-72
2021/12/21 01:35:30;;;;;;;14.75;6.58;;;;;;;-3.07;76.79;100722.84;1594121;89;33166;-72
2021/12/21 01:40:31;;;;;;;13.03;5.92;;;;;;;-3.08;76.38;100719.07;1593896;90;25691;-71
2021/12/21 01:43:15;;;;;;;9.80;4.87;;;;;;;-3.07;76.54;100724.67;1594343;88;25714;-71
2021/12/21 01:51:10;;;;;;;8.88;4.47;;;;;;;-3.09;76.42;100712.97;1586731;89;27342;-72
2021/12/21 01:53:38;;;;;;;8.03;4.47;;;;;;;-3.03;76.46;100723.23;1585514;90;25531;-72
2021/12/21 01:56:06;;;;;;;8.13;4.42;;;;;;;-3.02;76.29;100723.54;1639516;86;25585;-72
2021/12/21 01:58:33;;;;;;;6.85;4.30;;;;;;;-2.99;76.30;100728.95;1643370;87;26223;-72
2021/12/21 02:01:02;;;;;;;7.37;4.20;;;;;;;-2.98;76.38;100731.36;1641641;86;25440;-73
2021/12/21 02:03:29;;;;;;;8.38;4.35;;;;;;;-2.97;76.27;100727.70;1641914;86;27972;-73
2021/12/21 02:05:55;;;;;;;7.58;3.92;;;;;;;-2.95;76.24;100723.52;1621111;88;25831;-73
2021/12/21 02:08:22;;;;;;;7.12;4.12;;;;;;;-2.94;76.12;100715.89;1641622;87;25576;-73
2021/12/21 02:10:49;;;;;;;9.33;4.22;;;;;;;-2.93;75.98;100717.50;1641736;86;26302;-73
2021/12/21 02:13:15;;;;;;;8.20;4.22;;;;;;;-2.94;75.73;100713.25;1621233;88;25568;-73
2021/12/21 02:15:42;;;;;;;8.25;4.72;;;;;;;-2.97;75.59;100721.60;1622956;87;27411;-73
2021/12/21 02:20:59;;;;;;;7.15;3.72;;;;;;;-3.07;75.28;100724.67;1621263;88;25572;-73
2021/12/21 02:23:31;;;;;;;7.33;4.40;;;;;;;-3.13;75.27;100727.66;1634578;87;26528;-73
2021/12/21 02:26:10;;;;;;;8.85;4.22;;;;;;;-3.17;75.22;100730.91;1628105;87;25459;-73
2021/12/21 02:31:08;;;;;;;7.72;3.90;;;;;;;-3.28;75.20;100727.08;1560745;91;25575;-73
2021/12/21 02:33:35;;;;;;;9.10;4.37;;;;;;;-3.33;75.20;100732.17;1570148;91;25570;-73
2021/12/21 02:36:03;;;;;;;9.43;4.10;;;;;;;-3.40;75.25;100738.27;1619499;88;26184;-73
2021/12/21 02:38:29;;;;;;;9.38;4.22;;;;;;;-3.46;75.19;100737.77;1598178;88;25662;-72
2021/12/21 02:40:56;;;;;;;7.58;4.10;;;;;;;-3.48;75.23;100741.64;1573500;90;27440;-73
2021/12/21 02:43:23;;;;;;;9.40;4.40;;;;;;;-3.51;75.35;100743.38;1619540;88;25466;-72
2021/12/21 02:45:49;;;;;;;10.48;4.83;;;;;;;-3.55;75.31;100740.84;1619465;88;25798;-72
2021/12/21 02:48:16;;;;;;;7.65;4.70;;;;;;;-3.59;75.54;100731.19;1633918;87;25866;-72
2021/12/21 02:50:42;;;;;;;10.25;4.85;;;;;;;-3.63;75.61;100736.05;1643591;86;25416;-72
2021/12/21 02:53:10;;;;;;;7.20;4.67;;;;;;;-3.64;75.69;100738.92;1643287;87;28252;-72
2021/12/21 02:55:38;;;;;;;7.47;4.35;;;;;;;-3.68;75.78;100744.29;1643590;87;25699;-72
2021/12/21 02:58:05;;;;;;;9.88;4.67;;;;;;;-3.70;75.93;100760.88;1643260;87;25561;-72
2021/12/21 03:00:32;;;;;;;8.28;5.08;;;;;;;-3.72;75.97;100752.34;1643423;87;25915;-72
2021/12/21 03:03:06;;;;;;;8.75;4.58;;;;;;;-3.74;76.01;100756.50;1643664;87;25651;-72
2021/12/21 03:05:28;;;;;;;6.28;4.60;;;;;;;-3.75;75.89;100757.50;1611497;88;27388;-72
2021/12/21 03:10:24;;;;;;;10.63;5.40;;;;;;;-3.77;75.65;100759.55;1643022;87;25609;-72
2021/12/21 03:15:23;;;;;;;8.13;4.20;;;;;;;-3.74;75.76;100765.75;1643826;87;25589;-72
2021/12/21 03:17:52;;;;;;;6.30;3.80;;;;;;;-3.73;75.52;100764.72;1615519;88;26937;-72
2021/12/21 03:20:20;;;;;;;6.67;3.40;;;;;;;-3.70;75.46;100764.32;1643277;87;25639;-73
2021/12/21 03:22:47;;;;;;;6.70;3.70;;;;;;;-3.69;75.24;100763.31;1643657;87;25596;-73
2021/12/21 03:25:15;;;;;;;5.55;3.62;;;;;;;-3.66;75.19;100772.17;1643077;86;25613;-73
2021/12/21 03:27:42;;;;;;;8.00;3.62;;;;;;;-3.65;74.87;100768.49;1615801;88;25655;-73
2021/12/21 03:30:12;;;;;;;6.83;3.10;;;;;;;-3.64;74.48;100775.42;1642416;86;27989;-73
2021/12/21 03:32:39;;;;;;;6.62;3.47;;;;;;;-3.63;74.36;100790.77;1641523;87;25670;-73
2021/12/21 03:35:06;;;;;;;7.20;3.55;;;;;;;-3.61;74.21;100784.77;1641632;87;25406;-72
2021/12/21 03:37:33;;;;;;;6.37;4.30;;;;;;;-3.64;73.92;100794.45;1641536;87;25560;-72
2021/12/21 03:40:02;;;;;;;9.93;4.20;;;;;;;-3.70;73.55;100796.05;1621222;87;25774;-72
2021/12/21 03:42:29;;;;;;;7.30;3.75;;;;;;;-3.72;73.51;100797.28;1641741;87;27890;-72
2021/12/21 03:44:56;;;;;;;5.65;3.50;;;;;;;-3.74;73.55;100798.00;1641581;87;25451;-72
2021/12/21 03:47:23;;;;;;;6.87;3.85;;;;;;;-3.77;73.34;100803.17;1620638;87;25809;-72
2021/12/21 03:49:54;;;;;;;6.45;3.80;;;;;;;-3.82;73.01;100810.37;1621067;87;26211;-72
2021/12/21 03:52:22;;;;;;;6.65;3.92;;;;;;;-3.87;72.85;100806.20;1641401;87;25459;-72
2021/12/21 03:54:54;;;;;;;7.65;3.83;;;;;;;-3.91;72.68;100818.20;1641713;87;27311;-72
2021/12/21 03:57:22;;;;;;;7.22;3.90;;;;;;;-3.94;72.68;100819.91;1615855;88;25572;-72
2021/12/21 03:59:50;;;;;;;7.17;3.30;;;;;;;-3.98;72.43;100817.38;1636779;87;25543;-73
2021/12/21 04:02:19;;;;;;;5.50;3.25;;;;;;;-4.06;72.04;100826.80;1636864;86;25407;-73
2021/12/21 04:04:48;;;;;;;6.20;3.60;;;;;;;-4.15;71.86;100828.30;1585570;87;25479;-73
2021/12/21 04:07:15;;;;;;;6.65;3.22;;;;;;;-4.24;71.42;100829.49;1641852;86;27247;-73
2021/12/21 04:09:42;;;;;;;7.30;3.42;;;;;;;-4.33;71.27;100842.03;1617268;87;25627;-72
2021/12/21 04:12:09;;;;;;;8.48;3.42;;;;;;;-4.39;71.41;100842.84;1637231;87;25628;-72
2021/12/21 04:14:37;;;;;;;11.08;3.83;;;;;;;-4.44;71.24;100849.70;1636646;87;25644;-72
2021/12/21 04:17:04;;;;;;;8.35;3.05;;;;;;;-4.54;71.06;100852.20;1633689;87;25631;-72
2021/12/21 04:19:31;;;;;;;4.83;3.35;;;;;;;-4.64;70.88;100845.14;1620305;88;27411;-72
2021/12/21 04:21:57;;;;;;;4.55;3.33;;;;;;;-4.72;70.89;100855.86;1636582;87;25403;-72
2021/12/21 04:24:24;;;;;;;5.85;3.62;;;;;;;-4.78;70.95;100856.65;1636471;87;25444;-72
2021/12/21 04:26:51;;;;;;;7.22;3.70;;;;;;;-4.84;70.83;100862.17;1617335;88;25778;-72
2021/12/21 04:29:17;;;;;;;3.83;3.10;;;;;;;-4.89;70.94;100863.26;1642034;86;25574;-72
2021/12/21 04:31:44;;;;;;;5.22;3.62;;;;;;;-4.93;70.94;100873.90;1641454;86;27410;-72
2021/12/21 04:34:10;;;;;;;6.90;3.83;;;;;;;-4.98;70.95;100869.70;1641331;87;25641;-72
2021/12/21 04:36:38;;;;;;;5.42;3.70;;;;;;;-5.02;71.02;100876.35;1641364;86;25614;-72
2021/12/21 04:39:15;;;;;;;6.95;4.60;;;;;;;-5.05;71.09;100878.88;1641764;86;26366;-72
2021/12/21 04:41:32;;;;;;;5.25;3.65;;;;;;;-5.09;71.14;100878.45;1615714;88;25584;-72
2021/12/21 04:44:00;;;;;;;10.68;3.70;;;;;;;-5.14;71.03;100881.33;1641290;87;27878;-72
2021/12/21 04:46:27;;;;;;;8.88;3.98;;;;;;;-5.19;71.03;100887.68;1642489;86;25748;-72
2021/12/21 04:48:54;;;;;;;7.67;4.03;;;;;;;-5.21;70.73;100896.29;1617020;87;25672;-72
2021/12/21 04:51:22;;;;;;;8.95;4.33;;;;;;;-5.25;70.53;100894.03;1641348;87;26351;-72
2021/12/21 04:53:48;;;;;;;9.80;4.25;;;;;;;-5.27;70.40;100897.36;1641563;86;25590;-72
2021/12/21 04:56:15;;;;;;;7.25;4.65;;;;;;;-5.29;70.33;100911.25;1641409;87;27939;-72
2021/12/21 04:58:41;;;;;;;5.83;3.65;;;;;;;-5.32;70.20;100905.03;1641498;85;25925;-72
2021/12/21 05:01:07;;;;;;;6.70;3.83;;;;;;;-5.35;69.95;100917.78;1617996;87;25442;-72
2021/12/21 05:03:34;;;;;;;6.75;3.90;;;;;;;-5.39;69.76;100923.94;1602869;89;25632;-72
2021/12/21 05:06:00;;;;;;;6.20;4.03;;;;;;;-5.44;69.72;100922.36;1602968;89;25707;-72
2021/12/21 05:08:32;;;;;;;8.18;3.83;;;;;;;-5.47;69.85;100926.17;1602894;89;27250;-72
2021/12/21 05:11:00;;;;;;;5.08;3.40;;;;;;;-5.51;69.62;100931.52;1602229;89;25416;-72
2021/12/21 05:13:28;;;;;;;7.08;3.65;;;;;;;-5.55;69.74;100935.55;1602999;89;25468;-72
2021/12/21 05:15:56;;;;;;;5.67;3.33;;;;;;;-5.60;69.68;100931.34;1602685;89;25624;-72
2021/12/21 05:18:24;;;;;;;5.33;3.65;;;;;;;-5.65;69.74;100945.06;1602875;89;25445;-72
2021/12/21 05:20:52;;;;;;;7.10;3.12;;;;;;;-5.69;69.65;100950.89;1603003;89;27348;-72
2021/12/21 05:23:19;;;;;;;4.97;3.27;;;;;;;-5.73;69.65;100955.71;1602629;88;26124;-72
2021/12/21 05:25:45;;;;;;;7.03;3.70;;;;;;;-5.77;69.70;100959.73;1602756;89;25615;-72
2021/12/21 05:28:14;;;;;;;7.08;4.00;;;;;;;-5.81;69.87;100959.77;1644096;86;25586;-72
2021/12/21 05:30:43;;;;;;;8.05;3.60;;;;;;;-5.85;69.82;100955.87;1613282;88;25502;-71
2021/12/21 05:33:10;;;;;;;13.55;4.15;;;;;;;-5.91;69.60;100964.00;1620409;87;27948;-71
2021/12/21 05:35:38;;;;;;;5.80;3.20;;;;;;;-5.97;69.60;100962.66;1636899;87;25554;-71
2021/12/21 05:38:08;;;;;;;7.45;3.85;;;;;;;-6.02;69.57;100967.15;1610137;88;25483;-71
2021/12/21 05:40:39;;;;;;;8.43;3.92;;;;;;;-6.08;69.51;100964.75;1634997;87;25640;-71
2021/12/21 05:43:06;;;;;;;7.70;3.55;;;;;;;-6.12;69.66;100968.73;1588817;88;25624;-71
2021/12/21 05:45:33;;;;;;;5.95;3.33;;;;;;;-6.18;69.53;100970.77;1635176;87;28094;-71
2021/12/21 05:48:00;;;;;;;7.05;3.95;;;;;;;-6.22;69.61;100973.45;1634939;87;25616;-71
2021/12/21 05:50:26;;;;;;;5.03;3.42;;;;;;;-6.26;69.67;100974.83;1642772;87;25626;-69
2021/12/21 05:52:53;;;;;;;10.38;5.37;;;;;;;-6.29;69.90;100976.51;1643498;87;25626;-71
2021/12/21 05:55:20;;;;;;;9.78;4.65;;;;;;;-6.33;69.83;100983.95;1642838;87;25480;-70
2021/12/21 05:57:48;;;;;;;13.30;5.55;;;;;;;-6.35;69.88;100983.80;1643449;87;27305;-70
2021/12/21 06:00:20;;;;;;;5.25;3.08;;;;;;;-6.42;69.76;100982.37;1612722;88;25423;-70
2021/12/21 06:02:46;;;;;;;7.85;4.30;;;;;;;-6.46;69.85;100986.38;1595436;87;25204;-70
2021/12/21 06:05:13;;;;;;;6.30;3.85;;;;;;;-6.51;70.07;100982.16;1638702;87;26170;-71
2021/12/21 06:07:40;;;;;;;9.85;4.10;;;;;;;-6.54;70.19;100981.19;1644232;86;25628;-71
2021/12/21 06:10:15;;;;;;;6.80;4.53;;;;;;;-6.58;70.21;100982.05;1643694;87;27401;-70
2021/12/21 06:13:10;;;;;;;9.30;4.15;;;;;;;-6.62;70.27;100985.54;1616381;88;25394;-72
2021/12/21 06:26:09;;;;;;;11.50;3.92;;;;;;;-6.80;70.73;100990.30;1601546;88;25518;-70
2021/12/21 06:28:31;;;;;;;9.53;5.42;;;;;;;-6.84;70.63;100991.66;1603036;89;25623;-70
2021/12/21 06:30:58;;;;;;;13.90;4.42;;;;;;;-6.87;70.88;100992.82;1581878;89;26422;-70
2021/12/21 06:33:27;;;;;;;9.75;4.78;;;;;;;-6.90;71.14;100994.48;1604179;89;25640;-71
2021/12/21 06:35:57;;;;;;;5.28;2.67;;;;;;;-6.94;70.90;100993.21;1604284;89;27695;-71
2021/12/21 06:38:28;;;;;;;7.65;4.55;;;;;;;-6.97;70.87;100998.82;1583410;89;25663;-71
2021/12/21 06:40:55;;;;;;;9.83;4.75;;;;;;;-7.00;70.98;101001.32;1604271;89;29866;-71
2021/12/21 06:43:23;;;;;;;9.95;4.28;;;;;;;-7.02;70.99;101005.11;1604119;89;25685;-71
2021/12/21 06:45:57;;;;;;;8.40;4.10;;;;;;;-7.04;71.13;101009.73;1603743;88;25558;-71
2021/12/21 06:53:44;;;;;;;9.68;4.70;;;;;;;-7.11;71.47;101014.06;1590773;90;25571;-70
2021/12/21 06:56:11;;;;;;;11.15;5.75;;;;;;;-7.15;71.17;101018.82;1554451;90;25652;-70
2021/12/21 06:58:38;;;;;;;21.17;8.55;;;;;;;-7.18;71.13;101021.31;1535339;90;25884;-70
2021/12/21 07:01:06;;;;;;;21.60;10.45;;;;;;;-7.19;71.28;101022.30;1540728;92;27367;-70
2021/12/21 07:03:35;;;;;;;37.78;17.32;;;;;;;-7.20;71.40;101018.05;1556818;92;26040;-70
2021/12/21 07:06:06;;;;;;;24.35;11.30;;;;;;;-7.18;71.23;101023.14;1547772;91;25568;-71
2021/12/21 07:08:45;;;;;;;29.92;13.08;;;;;;;-7.22;71.30;101016.09;1530076;93;25737;-71
2021/12/21 07:11:17;;;;;;;;;;;;;;;-7.25;71.11;101023.02;1582462;88;25481;-71
2021/12/21 07:19:10;;;;;;;19.37;10.20;;;;;;;-7.34;71.06;101034.08;1541644;91;25723;-70
2021/12/21 07:21:38;;;;;;;27.40;11.80;;;;;;;-7.40;71.22;101033.94;1567549;90;25940;-71
2021/12/21 07:24:07;;;;;;;53.45;25.02;;;;;;;-7.44;71.50;101040.05;1565368;88;25808;-70
2021/12/21 07:26:33;;;;;;;36.95;15.88;;;;;;;-7.46;71.84;101043.81;1606896;88;27367;-70
2021/12/21 07:28:59;;;;;;;30.35;11.88;;;;;;;-7.45;71.99;101042.84;1623281;88;25846;-71
2021/12/21 07:31:26;;;;;;;20.32;10.32;;;;;;;-7.43;72.30;101044.80;1643591;85;25810;-71
2021/12/21 07:33:52;;;;;;;21.70;8.98;;;;;;;-7.37;72.72;101051.97;1647686;86;25636;-71
2021/12/21 07:36:19;;;;;;;26.35;10.05;;;;;;;-7.35;72.62;101043.45;1593729;88;25518;-70
2021/12/21 07:38:45;;;;;;;18.32;8.63;;;;;;;-7.32;72.49;101048.33;1651360;86;27390;-70
2021/12/21 07:41:12;;;;;;;20.48;9.18;;;;;;;-7.27;72.61;101059.18;1664669;85;25780;-71
2021/12/21 07:43:38;;;;;;;32.53;13.72;;;;;;;-7.23;72.97;101041.25;1653753;85;25654;-71
2021/12/21 07:46:05;;;;;;;25.35;11.05;;;;;;;-7.15;73.26;101046.43;1671618;85;25886;-70
2021/12/21 07:48:33;;;;;;;20.95;9.45;;;;;;;-7.06;73.94;101048.03;1624152;87;25283;-71
2021/12/21 07:51:00;;;;;;;22.40;9.45;;;;;;;-6.91;74.18;101049.42;1665081;85;27438;-71
2021/12/21 07:53:27;;;;;;;20.48;8.65;;;;;;;-6.74;74.83;101049.28;1671203;85;25388;-71
2021/12/21 07:55:54;;;;;;;17.60;9.53;;;;;;;-6.52;75.85;101047.63;1659240;85;25316;-71
2021/12/21 07:58:21;;;;;;;22.65;9.35;;;;;;;-6.29;75.96;101049.73;1649458;87;26151;-71
2021/12/21 08:00:47;;;;;;;21.57;8.48;;;;;;;-6.04;76.37;101058.20;1654037;86;25729;-72
2021/12/21 08:03:16;;;;;;;22.62;8.55;;;;;;;-5.77;76.17;101051.97;1634968;86;27721;-72
2021/12/21 08:05:45;;;;;;;20.02;8.43;;;;;;;-5.50;76.50;101053.13;1650711;85;25729;-72
2021/12/21 08:08:16;;;;;;;12.20;6.90;;;;;;;-5.18;76.12;101050.23;1671861;85;25404;-72
2021/12/21 08:10:44;;;;;;;14.25;6.92;;;;;;;-4.88;74.99;101044.36;1560504;90;25718;-72
2021/12/21 08:13:09;;;;;;;12.85;6.35;;;;;;;-4.59;75.29;101051.83;1573600;90;25764;-72
2021/12/21 08:15:36;;;;;;;12.05;5.60;;;;;;;-4.21;74.55;101052.32;1573256;90;27334;-72
2021/12/21 08:18:02;;;;;;;13.80;6.15;;;;;;;-3.88;73.37;101053.55;1583333;90;25686;-72
2021/12/21 08:20:29;;;;;;;9.35;5.37;;;;;;;-3.37;74.98;101049.23;1576775;90;25676;-72
2021/12/21 08:22:57;;;;;;;12.00;5.35;;;;;;;-2.70;74.86;101048.06;1577572;90;25825;-72
2021/12/21 08:25:28;;;;;;;8.95;4.97;;;;;;;-2.15;74.03;101044.67;1579602;90;25750;-73
2021/12/21 08:27:57;;;;;;;20.37;6.97;;;;;;;-1.35;73.88;101048.42;1557451;90;27158;-72
2021/12/21 08:30:25;;;;;;;9.68;5.03;;;;;;;-0.70;71.27;101046.11;1533338;92;25693;-72
2021/12/21 08:32:52;;;;;;;10.25;5.25;;;;;;;-0.09;71.75;101044.58;1552522;91;25560;-72
2021/12/21 08:35:19;;;;;;;8.90;5.40;;;;;;;0.66;71.41;101040.08;1548557;91;25688;-72
2021/12/21 08:37:52;;;;;;;10.80;5.20;;;;;;;1.35;70.01;101040.55;1523926;93;25782;-72
2021/12/21 08:40:14;;;;;;;8.90;5.42;;;;;;;1.94;68.37;101031.76;1544098;91;27388;-72
2021/12/21 08:42:45;;;;;;;12.00;5.47;;;;;;;2.51;66.71;101032.43;1619280;87;25889;-72
2021/12/21 08:45:10;;;;;;;9.58;4.67;;;;;;;2.87;65.21;101032.58;1610403;88;25809;-72
2021/12/21 08:47:38;;;;;;;8.23;4.65;;;;;;;3.29;63.39;101031.45;1617126;86;26153;-73
2021/12/21 08:50:08;;;;;;;8.58;4.03;;;;;;;3.62;61.82;101021.80;1638795;87;25494;-73
2021/12/21 08:52:36;;;;;;;7.78;4.83;;;;;;;3.97;60.63;101024.69;1618485;86;27448;-73
2021/12/21 08:55:07;;;;;;;6.20;3.60;;;;;;;4.21;59.99;101023.43;1617022;87;25761;-73
2021/12/21 08:57:36;;;;;;;8.15;4.58;;;;;;;4.62;59.31;101027.94;1609607;87;25477;-73
2021/12/21 09:00:07;;;;;;;9.45;5.12;;;;;;;4.79;56.58;101024.37;1637751;86;26215;-74
2021/12/21 09:02:36;;;;;;;10.43;4.97;;;;;;;4.94;57.08;101031.73;1591214;87;25491;-74
2021/12/21 09:05:12;;;;;;;10.10;5.05;;;;;;;5.37;56.88;101036.17;1641281;87;27530;-74
2021/12/21 09:07:36;;;;;;;13.50;5.92;;;;;;;5.74;56.23;101031.89;1628052;86;25870;-74
2021/12/21 09:10:06;;;;;;;11.90;5.00;;;;;;;6.09;55.37;101037.23;1633278;86;25676;-74
2021/12/21 09:12:33;;;;;;;13.55;6.40;;;;;;;6.32;54.36;101024.72;1639040;86;25629;-74
2021/12/21 09:15:00;;;;;;;12.37;6.12;;;;;;;6.58;53.52;101028.04;1621020;87;26278;-74
2021/12/21 09:17:28;;;;;;;16.52;6.85;;;;;;;6.74;52.35;101024.31;1601432;87;28109;-75
2021/12/21 09:19:56;;;;;;;19.87;5.80;;;;;;;6.89;51.18;101023.55;1652865;86;25751;-75
2021/12/21 09:22:24;;;;;;;10.58;5.35;;;;;;;6.84;50.29;101020.30;1630142;86;25763;-75
2021/12/21 09:24:50;;;;;;;11.65;6.55;;;;;;;6.99;49.79;101012.00;1654269;86;26197;-75
2021/12/21 09:27:17;;;;;;;9.93;5.45;;;;;;;7.24;50.08;101010.67;1635435;86;25702;-75
2021/12/21 09:29:45;;;;;;;16.80;6.37;;;;;;;7.41;48.66;101011.75;1655990;84;27360;-75
2021/12/21 09:32:15;;;;;;;12.45;5.67;;;;;;;7.56;48.38;101002.86;1652648;84;25620;-74
2021/12/21 09:34:42;;;;;;;13.72;5.12;;;;;;;8.14;46.86;101002.45;1609792;88;25657;-74
2021/12/21 09:37:14;;;;;;;9.68;4.62;;;;;;;8.42;45.50;101000.18;1615416;88;25659;-74
2021/12/21 09:39:38;;;;;;;9.93;4.58;;;;;;;9.07;43.61;101008.73;1661703;85;25673;-74
2021/12/21 09:43:16;;;;;;;7.03;4.33;;;;;;;8.94;42.60;101006.93;1650860;86;27270;-74
2021/12/21 09:45:43;;;;;;;7.45;4.00;;;;;;;9.38;43.23;101000.38;1662087;85;25796;-73
2021/12/21 09:48:09;;;;;;;8.43;4.30;;;;;;;9.81;41.84;100998.63;1663307;85;25725;-73
2021/12/21 09:50:36;;;;;;;10.72;4.22;;;;;;;10.32;41.90;100997.80;1673907;85;26272;-73
2021/12/21 09:53:04;;;;;;;8.70;4.35;;;;;;;10.48;39.42;100984.90;1683101;85;25824;-74
2021/12/21 09:55:31;;;;;;;14.75;4.35;;;;;;;10.05;38.13;100982.97;1600741;88;27253;-71
2021/12/21 09:57:57;;;;;;;8.75;3.77;;;;;;;9.66;36.06;100977.17;1618091;88;26143;-70
2021/12/21 10:00:34;;;;;;;13.32;3.45;;;;;;;9.25;36.41;100981.05;1604740;86;25620;-70
2021/12/21 10:03:04;;;;;;;5.37;4.25;;;;;;;8.90;36.75;100980.23;1643049;86;26693;-71
2021/12/21 10:05:34;;;;;;;;;;;;;;;9.17;37.78;100976.27;1655155;86;25495;-71
2021/12/21 10:08:17;;;;;;;9.20;2.90;;;;;;;9.24;36.67;100972.69;1623105;88;27377;-69
2021/12/21 10:10:51;;;;;;;8.43;3.95;;;;;;;9.01;36.33;100972.06;1631200;86;25884;-72
2021/12/21 10:13:22;;;;;;;10.98;3.33;;;;;;;9.25;35.23;100974.30;1642108;86;25448;-69
2021/12/21 10:15:52;;;;;;;6.17;3.52;;;;;;;8.89;32.82;100976.48;1674301;85;25803;-69
2021/12/21 10:18:26;;;;;;;7.30;2.80;;;;;;;8.55;34.58;100978.03;1620553;88;26438;-70
2021/12/21 10:21:03;;;;;;;9.33;3.52;;;;;;;8.57;36.30;100975.86;1654503;85;27460;-69
2021/12/21 10:23:33;;;;;;;9.73;3.35;;;;;;;8.91;36.57;100977.02;1669043;84;25695;-70
2021/12/21 10:26:05;;;;;;;10.25;3.67;;;;;;;9.27;36.54;100982.13;1630631;85;25797;-69
2021/12/21 10:28:39;;;;;;;6.37;3.15;;;;;;;9.27;34.40;100990.22;1647066;85;25824;-69
2021/12/21 10:31:13;;;;;;;9.90;2.83;;;;;;;9.31;35.75;101000.19;1617251;88;25746;-69
2021/12/21 10:34:03;;;;;;;3.87;2.40;;;;;;;9.23;34.37;100994.56;1593374;89;28112;-69
2021/12/21 10:36:49;;;;;;;8.38;3.40;;;;;;;9.19;34.87;100997.58;1604637;88;25407;-69
2021/12/21 10:39:31;;;;;;;14.15;3.52;;;;;;;9.56;35.51;101003.73;1611445;88;25668;-68
2021/12/21 10:42:01;;;;;;;6.15;2.90;;;;;;;9.84;35.27;100992.66;1583719;89;26537;-69
2021/12/21 10:44:28;;;;;;;8.43;3.20;;;;;;;10.10;33.99;100992.38;1596626;89;25725;-69
2021/12/21 10:46:56;;;;;;;6.17;3.22;;;;;;;10.14;34.85;100988.54;1617862;88;27384;-69
2021/12/21 10:49:31;;;;;;;13.40;4.47;;;;;;;10.63;34.90;100990.10;1610851;87;25759;-69
2021/12/21 10:52:12;;;;;;;9.25;3.42;;;;;;;10.94;34.39;100979.62;1618904;88;25662;-68
2021/12/21 10:54:48;;;;;;;8.23;2.70;;;;;;;11.42;34.55;100983.98;1617478;88;25737;-69
2021/12/21 10:57:23;;;;;;;8.80;3.45;;;;;;;11.28;32.69;100982.59;1623734;87;25801;-68
2021/12/21 10:59:54;;;;;;;12.65;3.83;;;;;;;11.30;28.58;100976.89;1593255;89;27350;-69
2021/12/21 11:02:29;;;;;;;7.90;4.20;;;;;;;10.80;31.11;100972.80;1640377;86;25642;-69
2021/12/21 11:05:07;;;;;;;11.70;3.50;;;;;;;10.45;30.71;100964.11;1653639;86;25773;-69
2021/12/21 11:07:46;;;;;;;8.65;3.37;;;;;;;10.47;32.01;100965.14;1656083;86;25754;-69
2021/12/21 11:10:32;;;;;;;11.68;3.40;;;;;;;10.97;31.88;100970.91;1637801;86;25623;-70
2021/12/21 11:13:15;;;;;;;16.23;3.20;;;;;;;11.27;31.86;100968.00;1644322;86;27971;-69
2021/12/21 11:15:53;;;;;;;10.93;3.25;;;;;;;11.94;32.49;100966.27;1639437;86;25809;-70
2021/12/21 11:18:25;;;;;;;10.00;3.00;;;;;;;12.42;31.66;100960.38;1652834;86;25674;-69
2021/12/21 11:20:56;;;;;;;12.58;2.72;;;;;;;12.54;31.19;100964.48;1644701;86;25677;-69
2021/12/21 11:23:34;;;;;;;9.70;2.60;;;;;;;12.77;31.20;100955.27;1647395;86;25677;-70
2021/12/21 11:26:03;;;;;;;5.83;2.50;;;;;;;12.84;31.20;100964.34;1634187;86;28047;-70
2021/12/21 11:28:36;;;;;;;9.48;2.70;;;;;;;12.25;29.88;100961.58;1649867;86;25737;-70
2021/12/21 11:31:06;;;;;;;10.35;2.70;;;;;;;11.39;29.89;100965.08;1631500;87;25377;-68
2021/12/21 11:33:44;;;;;;;6.25;2.92;;;;;;;10.54;28.03;100962.91;1654127;86;26315;-70
2021/12/21 11:39:03;;;;;;;7.55;3.87;;;;;;;9.30;31.15;100968.06;1592196;89;27902;-69
2021/12/21 11:41:30;;;;;;;9.55;4.05;;;;;;;8.96;31.02;100970.23;1563313;90;25735;-70
2021/12/21 11:44:39;;;;;;;9.73;4.20;;;;;;;8.60;31.80;100971.27;1549559;91;25712;-69
2021/12/21 11:47:09;;;;;;;12.50;5.58;;;;;;;8.39;31.99;100973.77;1560956;91;26695;-68
2021/12/21 11:49:50;;;;;;;9.23;4.85;;;;;;;8.15;33.13;100968.22;1596619;89;25751;-70
2021/12/21 11:52:21;;;;;;;12.10;4.92;;;;;;;7.98;32.69;100961.82;1563876;91;28020;-70
2021/12/21 11:54:55;;;;;;;11.43;5.80;;;;;;;7.83;33.40;100968.05;1599368;89;25775;-67
2021/12/21 11:57:38;;;;;;;10.28;5.92;;;;;;;7.95;34.45;100965.88;1599187;89;25594;-68
2021/12/21 12:00:17;;;;;;;16.70;7.45;;;;;;;7.97;34.72;100958.87;1599259;89;25962;-67
2021/12/21 12:02:46;;;;;;;18.23;6.95;;;;;;;7.89;34.63;100952.70;1599373;89;25663;-67
2021/12/21 12:05:22;;;;;;;9.58;5.80;;;;;;;7.82;34.38;100955.14;1599497;89;27233;-69
2021/12/21 12:08:07;;;;;;;11.25;6.30;;;;;;;7.59;34.47;100957.08;1584496;90;25508;-70
2021/12/21 12:10:56;;;;;;;13.20;6.75;;;;;;;7.23;34.31;100965.99;1589897;89;25736;-69
2021/12/21 12:13:33;;;;;;;14.18;5.97;;;;;;;7.26;35.57;100962.77;1558681;90;34825;-69
2021/12/21 12:16:10;;;;;;;13.15;6.17;;;;;;;7.42;36.12;100964.92;1644584;87;26266;-68
2021/12/21 12:18:48;;;;;;;13.48;5.40;;;;;;;7.63;35.79;100960.30;1643144;87;28037;-68
2021/12/21 12:21:25;;;;;;;12.75;5.53;;;;;;;7.27;34.46;100964.39;1644800;87;25645;-68
2021/12/21 12:23:56;;;;;;;14.73;5.70;;;;;;;6.19;32.55;100962.61;1653964;85;25756;-68
2021/12/21 12:26:35;;;;;;;10.30;5.12;;;;;;;5.54;34.95;100971.63;1680871;85;25977;-69
2021/12/21 12:29:15;;;;;;;9.28;5.58;;;;;;;5.45;35.81;100969.16;1657335;84;25645;-69
2021/12/21 12:31:49;;;;;;;13.13;6.15;;;;;;;5.58;36.62;100969.23;1660266;85;27351;-68
2021/12/21 12:34:29;;;;;;;9.65;5.47;;;;;;;5.75;36.73;100972.55;1658307;85;25733;-68